sensor_id;sensor_type;location;lat;lon;timestamp;temperature;humidity
67275;DHT22;55463;52.324;5.122;2023-04-22T00:01:21;9.39;98.47
67275;DHT22;55463;52.324;5.122;2023-04-22T00:03:49;9.40;97.64
67275;DHT22;55463;52.324;5.122;2023-04-22T00:06:14;9.40;98.17
67275;DHT22;55463;52.324;5.122;2023-04-22T00:08:40;9.42;97.23
67275;DHT22;55463;52.324;5.122;2023-04-22T00:11:05;9.40;97.85
67275;DHT22;55463;52.324;5.122;2023-04-22T00:13:30;9.39;97.98
67275;DHT22;55463;52.324;5.122;2023-04-22T00:15:56;9.38;97.72
67275;DHT22;55463;52.324;5.122;2023-04-22T00:18:22;9.34;98.24
67275;DHT22;55463;52.324;5.122;2023-04-22T00:20:47;9.35;97.44
67275;DHT22;55463;52.324;5.122;2023-04-22T00:23:13;9.31;97.03
67275;DHT22;55463;52.324;5.122;2023-04-22T00:25:39;9.28;97.92
67275;DHT22;55463;52.324;5.122;2023-04-22T00:28:05;9.34;98.33
67275;DHT22;55463;52.324;5.122;2023-04-22T00:30:30;9.29;97.20
67275;DHT22;55463;52.324;5.122;2023-04-22T00:32:56;9.24;97.44
67275;DHT22;55463;52.324;5.122;2023-04-22T00:35:21;9.20;97.28
67275;DHT22;55463;52.324;5.122;2023-04-22T00:37:47;9.18;97.05
67275;DHT22;55463;52.324;5.122;2023-04-22T00:40:12;9.14;97.31
67275;DHT22;55463;52.324;5.122;2023-04-22T00:42:38;9.10;97.13
67275;DHT22;55463;52.324;5.122;2023-04-22T00:45:04;9.05;96.47
67275;DHT22;55463;52.324;5.122;2023-04-22T00:47:34;9.01;97.29
67275;DHT22;55463;52.324;5.122;2023-04-22T00:50:00;8.94;97.36
67275;DHT22;55463;52.324;5.122;2023-04-22T00:52:25;8.88;96.94
67275;DHT22;55463;52.324;5.122;2023-04-22T00:54:51;8.88;97.37
67275;DHT22;55463;52.324;5.122;2023-04-22T00:57:17;8.86;97.23
67275;DHT22;55463;52.324;5.122;2023-04-22T00:59:43;8.81;96.49
67275;DHT22;55463;52.324;5.122;2023-04-22T01:02:08;8.79;97.36
67275;DHT22;55463;52.324;5.122;2023-04-22T01:04:34;8.76;96.57
67275;DHT22;55463;52.324;5.122;2023-04-22T01:07:00;8.72;96.83
67275;DHT22;55463;52.324;5.122;2023-04-22T01:09:25;8.67;96.66
67275;DHT22;55463;52.324;5.122;2023-04-22T01:11:51;8.62;97.15
67275;DHT22;55463;52.324;5.122;2023-04-22T01:14:16;8.62;97.03
67275;DHT22;55463;52.324;5.122;2023-04-22T01:16:42;8.59;97.04
67275;DHT22;55463;52.324;5.122;2023-04-22T01:19:09;8.56;97.77
67275;DHT22;55463;52.324;5.122;2023-04-22T01:21:35;8.57;98.84
67275;DHT22;55463;52.324;5.122;2023-04-22T01:24:03;8.55;98.35
67275;DHT22;55463;52.324;5.122;2023-04-22T01:26:28;8.55;97.60
67275;DHT22;55463;52.324;5.122;2023-04-22T01:28:54;8.50;97.76
67275;DHT22;55463;52.324;5.122;2023-04-22T01:31:20;8.48;97.53
67275;DHT22;55463;52.324;5.122;2023-04-22T01:33:45;8.44;98.64
67275;DHT22;55463;52.324;5.122;2023-04-22T01:36:12;8.44;97.73
67275;DHT22;55463;52.324;5.122;2023-04-22T01:38:38;8.41;97.52
67275;DHT22;55463;52.324;5.122;2023-04-22T01:41:04;8.35;98.17
67275;DHT22;55463;52.324;5.122;2023-04-22T01:43:30;8.32;97.84
67275;DHT22;55463;52.324;5.122;2023-04-22T01:45:56;8.31;97.11
67275;DHT22;55463;52.324;5.122;2023-04-22T01:48:22;8.28;97.10
67275;DHT22;55463;52.324;5.122;2023-04-22T01:50:47;8.27;96.92
67275;DHT22;55463;52.324;5.122;2023-04-22T01:53:13;8.22;97.62
67275;DHT22;55463;52.324;5.122;2023-04-22T01:55:38;8.17;97.12
67275;DHT22;55463;52.324;5.122;2023-04-22T01:58:04;8.12;97.21
67275;DHT22;55463;52.324;5.122;2023-04-22T02:00:30;8.07;98.14
67275;DHT22;55463;52.324;5.122;2023-04-22T02:02:55;8.00;97.62
67275;DHT22;55463;52.324;5.122;2023-04-22T02:05:21;7.95;97.08
67275;DHT22;55463;52.324;5.122;2023-04-22T02:07:51;7.90;97.15
67275;DHT22;55463;52.324;5.122;2023-04-22T02:10:16;7.82;97.24
67275;DHT22;55463;52.324;5.122;2023-04-22T02:12:41;7.77;97.42
67275;DHT22;55463;52.324;5.122;2023-04-22T02:15:07;7.72;97.34
67275;DHT22;55463;52.324;5.122;2023-04-22T02:17:33;7.66;97.83
67275;DHT22;55463;52.324;5.122;2023-04-22T02:20:00;7.62;97.74
67275;DHT22;55463;52.324;5.122;2023-04-22T02:22:26;7.56;97.35
67275;DHT22;55463;52.324;5.122;2023-04-22T02:24:54;7.51;97.58
67275;DHT22;55463;52.324;5.122;2023-04-22T02:27:19;7.42;98.67
67275;DHT22;55463;52.324;5.122;2023-04-22T02:29:44;7.36;97.31
67275;DHT22;55463;52.324;5.122;2023-04-22T02:32:10;7.35;97.79
67275;DHT22;55463;52.324;5.122;2023-04-22T02:34:35;7.30;97.09
67275;DHT22;55463;52.324;5.122;2023-04-22T02:37:01;7.25;97.66
67275;DHT22;55463;52.324;5.122;2023-04-22T02:39:26;7.21;98.96
67275;DHT22;55463;52.324;5.122;2023-04-22T02:41:51;7.18;98.19
67275;DHT22;55463;52.324;5.122;2023-04-22T02:44:17;7.10;98.58
67275;DHT22;55463;52.324;5.122;2023-04-22T02:46:42;7.03;98.92
67275;DHT22;55463;52.324;5.122;2023-04-22T02:49:07;6.99;97.67
67275;DHT22;55463;52.324;5.122;2023-04-22T02:51:33;6.94;97.91
67275;DHT22;55463;52.324;5.122;2023-04-22T02:53:58;6.96;98.06
67275;DHT22;55463;52.324;5.122;2023-04-22T02:56:24;6.96;97.85
67275;DHT22;55463;52.324;5.122;2023-04-22T02:58:50;6.93;99.01
67275;DHT22;55463;52.324;5.122;2023-04-22T03:01:16;6.89;98.38
67275;DHT22;55463;52.324;5.122;2023-04-22T03:03:41;6.86;97.29
67275;DHT22;55463;52.324;5.122;2023-04-22T03:06:07;6.80;97.54
67275;DHT22;55463;52.324;5.122;2023-04-22T03:08:32;6.77;98.98
67275;DHT22;55463;52.324;5.122;2023-04-22T03:10:57;6.76;98.10
67275;DHT22;55463;52.324;5.122;2023-04-22T03:13:23;6.71;98.07
67275;DHT22;55463;52.324;5.122;2023-04-22T03:15:48;6.69;98.33
67275;DHT22;55463;52.324;5.122;2023-04-22T03:18:13;6.66;98.24
67275;DHT22;55463;52.324;5.122;2023-04-22T03:20:39;6.65;99.99
67275;DHT22;55463;52.324;5.122;2023-04-22T03:23:04;6.65;98.84
67275;DHT22;55463;52.324;5.122;2023-04-22T03:25:31;6.58;98.42
67275;DHT22;55463;52.324;5.122;2023-04-22T03:27:57;6.53;97.77
67275;DHT22;55463;52.324;5.122;2023-04-22T03:30:22;6.48;97.76
67275;DHT22;55463;52.324;5.122;2023-04-22T03:32:47;6.44;98.10
67275;DHT22;55463;52.324;5.122;2023-04-22T03:35:13;6.45;98.91
67275;DHT22;55463;52.324;5.122;2023-04-22T03:37:39;6.42;98.29
67275;DHT22;55463;52.324;5.122;2023-04-22T03:40:05;6.38;98.00
67275;DHT22;55463;52.324;5.122;2023-04-22T03:42:31;6.37;98.21
67275;DHT22;55463;52.324;5.122;2023-04-22T03:44:56;6.37;98.10
67275;DHT22;55463;52.324;5.122;2023-04-22T03:47:22;6.35;98.89
67275;DHT22;55463;52.324;5.122;2023-04-22T03:49:47;6.35;99.27
67275;DHT22;55463;52.324;5.122;2023-04-22T03:52:12;6.38;98.96
67275;DHT22;55463;52.324;5.122;2023-04-22T03:54:38;6.39;99.97
67275;DHT22;55463;52.324;5.122;2023-04-22T03:57:03;6.45;99.92
67275;DHT22;55463;52.324;5.122;2023-04-22T03:59:28;6.44;99.05
67275;DHT22;55463;52.324;5.122;2023-04-22T04:01:54;6.50;99.67
67275;DHT22;55463;52.324;5.122;2023-04-22T04:04:19;6.52;99.58
67275;DHT22;55463;52.324;5.122;2023-04-22T04:06:45;6.55;99.90
67275;DHT22;55463;52.324;5.122;2023-04-22T04:09:10;6.58;99.70
67275;DHT22;55463;52.324;5.122;2023-04-22T04:11:36;6.59;99.88
67275;DHT22;55463;52.324;5.122;2023-04-22T04:14:01;6.62;99.76
67275;DHT22;55463;52.324;5.122;2023-04-22T04:16:27;6.64;99.89
67275;DHT22;55463;52.324;5.122;2023-04-22T04:18:53;6.65;99.65
67275;DHT22;55463;52.324;5.122;2023-04-22T04:21:18;6.68;99.99
67275;DHT22;55463;52.324;5.122;2023-04-22T04:23:43;6.68;99.14
67275;DHT22;55463;52.324;5.122;2023-04-22T04:26:09;6.68;99.89
67275;DHT22;55463;52.324;5.122;2023-04-22T04:28:35;6.68;99.79
67275;DHT22;55463;52.324;5.122;2023-04-22T04:31:00;6.69;99.99
67275;DHT22;55463;52.324;5.122;2023-04-22T04:33:28;6.68;99.54
67275;DHT22;55463;52.324;5.122;2023-04-22T04:35:53;6.73;99.48
67275;DHT22;55463;52.324;5.122;2023-04-22T04:38:19;6.75;99.57
67275;DHT22;55463;52.324;5.122;2023-04-22T04:40:44;6.76;99.99
67275;DHT22;55463;52.324;5.122;2023-04-22T04:43:10;6.80;99.97
67275;DHT22;55463;52.324;5.122;2023-04-22T04:45:37;6.83;99.64
67275;DHT22;55463;52.324;5.122;2023-04-22T04:48:03;6.80;99.99
67275;DHT22;55463;52.324;5.122;2023-04-22T04:50:31;6.85;99.71
67275;DHT22;55463;52.324;5.122;2023-04-22T04:52:57;6.85;99.52
67275;DHT22;55463;52.324;5.122;2023-04-22T04:55:22;6.83;99.15
67275;DHT22;55463;52.324;5.122;2023-04-22T04:57:47;6.85;99.63
67275;DHT22;55463;52.324;5.122;2023-04-22T05:00:13;6.90;99.69
67275;DHT22;55463;52.324;5.122;2023-04-22T05:02:39;6.90;99.71
67275;DHT22;55463;52.324;5.122;2023-04-22T05:05:05;6.94;99.28
67275;DHT22;55463;52.324;5.122;2023-04-22T05:07:31;6.94;99.49
67275;DHT22;55463;52.324;5.122;2023-04-22T05:09:56;6.97;99.38
67275;DHT22;55463;52.324;5.122;2023-04-22T05:12:21;6.99;99.70
67275;DHT22;55463;52.324;5.122;2023-04-22T05:14:47;7.04;99.90
67275;DHT22;55463;52.324;5.122;2023-04-22T05:17:12;7.10;99.99
67275;DHT22;55463;52.324;5.122;2023-04-22T05:19:38;7.14;99.99
67275;DHT22;55463;52.324;5.122;2023-04-22T05:22:04;7.21;99.99
67275;DHT22;55463;52.324;5.122;2023-04-22T05:24:29;7.24;99.99
67275;DHT22;55463;52.324;5.122;2023-04-22T05:26:55;7.27;99.99
67275;DHT22;55463;52.324;5.122;2023-04-22T05:29:21;7.32;99.99
67275;DHT22;55463;52.324;5.122;2023-04-22T05:31:47;7.38;99.99
67275;DHT22;55463;52.324;5.122;2023-04-22T05:34:12;7.45;99.99
67275;DHT22;55463;52.324;5.122;2023-04-22T05:36:37;7.49;99.99
67275;DHT22;55463;52.324;5.122;2023-04-22T05:39:04;7.54;99.99
67275;DHT22;55463;52.324;5.122;2023-04-22T05:41:30;7.61;99.99
67275;DHT22;55463;52.324;5.122;2023-04-22T05:43:55;7.66;99.99
67275;DHT22;55463;52.324;5.122;2023-04-22T05:46:21;7.70;99.99
67275;DHT22;55463;52.324;5.122;2023-04-22T05:48:46;7.77;99.99
67275;DHT22;55463;52.324;5.122;2023-04-22T05:51:13;7.83;99.99
67275;DHT22;55463;52.324;5.122;2023-04-22T05:53:38;7.89;99.99
67275;DHT22;55463;52.324;5.122;2023-04-22T05:56:03;7.93;99.99
67275;DHT22;55463;52.324;5.122;2023-04-22T05:58:29;8.00;99.99
67275;DHT22;55463;52.324;5.122;2023-04-22T06:00:54;8.07;99.99
67275;DHT22;55463;52.324;5.122;2023-04-22T06:03:19;8.12;99.99
67275;DHT22;55463;52.324;5.122;2023-04-22T06:05:45;8.18;99.99
67275;DHT22;55463;52.324;5.122;2023-04-22T06:08:10;8.22;99.99
67275;DHT22;55463;52.324;5.122;2023-04-22T06:10:36;8.31;99.99
67275;DHT22;55463;52.324;5.122;2023-04-22T06:13:01;8.34;99.99
67275;DHT22;55463;52.324;5.122;2023-04-22T06:15:27;8.41;99.99
67275;DHT22;55463;52.324;5.122;2023-04-22T06:17:52;8.46;99.99
67275;DHT22;55463;52.324;5.122;2023-04-22T06:20:17;8.53;99.99
67275;DHT22;55463;52.324;5.122;2023-04-22T06:22:43;8.62;99.99
67275;DHT22;55463;52.324;5.122;2023-04-22T06:25:08;8.66;99.99
67275;DHT22;55463;52.324;5.122;2023-04-22T06:27:34;8.75;99.99
67275;DHT22;55463;52.324;5.122;2023-04-22T06:30:00;8.80;99.99
67275;DHT22;55463;52.324;5.122;2023-04-22T06:32:25;8.84;99.99
67275;DHT22;55463;52.324;5.122;2023-04-22T06:34:50;8.94;99.99
67275;DHT22;55463;52.324;5.122;2023-04-22T06:37:16;9.00;99.99
67275;DHT22;55463;52.324;5.122;2023-04-22T06:39:41;9.07;99.99
67275;DHT22;55463;52.324;5.122;2023-04-22T06:42:07;9.15;99.99
67275;DHT22;55463;52.324;5.122;2023-04-22T06:44:32;9.22;99.99
67275;DHT22;55463;52.324;5.122;2023-04-22T06:46:58;9.31;99.99
67275;DHT22;55463;52.324;5.122;2023-04-22T06:49:23;9.39;99.99
67275;DHT22;55463;52.324;5.122;2023-04-22T06:51:48;9.43;99.99
67275;DHT22;55463;52.324;5.122;2023-04-22T06:54:14;9.50;99.99
67275;DHT22;55463;52.324;5.122;2023-04-22T06:56:40;9.57;99.99
67275;DHT22;55463;52.324;5.122;2023-04-22T06:59:05;9.66;99.99
67275;DHT22;55463;52.324;5.122;2023-04-22T07:01:32;9.76;99.99
67275;DHT22;55463;52.324;5.122;2023-04-22T07:03:57;9.83;99.99
67275;DHT22;55463;52.324;5.122;2023-04-22T07:06:23;9.93;99.99
67275;DHT22;55463;52.324;5.122;2023-04-22T07:08:48;10.02;99.99
67275;DHT22;55463;52.324;5.122;2023-04-22T07:11:13;10.21;99.99
67275;DHT22;55463;52.324;5.122;2023-04-22T07:13:39;10.36;99.99
67275;DHT22;55463;52.324;5.122;2023-04-22T07:16:05;10.49;99.95
67275;DHT22;55463;52.324;5.122;2023-04-22T07:18:30;10.59;99.73
67275;DHT22;55463;52.324;5.122;2023-04-22T07:20:56;10.79;99.99
67275;DHT22;55463;52.324;5.122;2023-04-22T07:23:21;10.99;99.87
67275;DHT22;55463;52.324;5.122;2023-04-22T07:25:47;11.10;99.10
67275;DHT22;55463;52.324;5.122;2023-04-22T07:28:12;11.27;99.42
67275;DHT22;55463;52.324;5.122;2023-04-22T07:30:38;11.39;99.01
67275;DHT22;55463;52.324;5.122;2023-04-22T07:33:03;11.49;98.17
67275;DHT22;55463;52.324;5.122;2023-04-22T07:35:28;11.56;97.62
67275;DHT22;55463;52.324;5.122;2023-04-22T07:37:54;11.45;95.62
67275;DHT22;55463;52.324;5.122;2023-04-22T07:40:20;11.63;96.90
67275;DHT22;55463;52.324;5.122;2023-04-22T07:42:45;11.69;96.29
67275;DHT22;55463;52.324;5.122;2023-04-22T07:45:11;11.73;96.07
67275;DHT22;55463;52.324;5.122;2023-04-22T07:47:37;11.91;96.75
67275;DHT22;55463;52.324;5.122;2023-04-22T07:50:02;12.24;96.87
67275;DHT22;55463;52.324;5.122;2023-04-22T07:52:28;12.80;98.87
67275;DHT22;55463;52.324;5.122;2023-04-22T07:54:54;12.81;94.63
67275;DHT22;55463;52.324;5.122;2023-04-22T07:57:20;12.87;92.80
67275;DHT22;55463;52.324;5.122;2023-04-22T07:59:47;12.90;92.64
67275;DHT22;55463;52.324;5.122;2023-04-22T08:02:13;12.94;92.50
67275;DHT22;55463;52.324;5.122;2023-04-22T08:04:38;13.01;91.77
67275;DHT22;55463;52.324;5.122;2023-04-22T08:07:03;13.15;91.35
67275;DHT22;55463;52.324;5.122;2023-04-22T08:09:29;13.28;91.42
67275;DHT22;55463;52.324;5.122;2023-04-22T08:11:54;13.45;91.22
67275;DHT22;55463;52.324;5.122;2023-04-22T08:14:20;13.67;90.26
67275;DHT22;55463;52.324;5.122;2023-04-22T08:16:46;14.18;91.72
67275;DHT22;55463;52.324;5.122;2023-04-22T08:19:11;14.22;88.38
67275;DHT22;55463;52.324;5.122;2023-04-22T08:21:36;14.72;87.76
67275;DHT22;55463;52.324;5.122;2023-04-22T08:24:02;15.03;88.16
67275;DHT22;55463;52.324;5.122;2023-04-22T08:26:28;15.70;84.72
67275;DHT22;55463;52.324;5.122;2023-04-22T08:28:53;16.38;84.00
67275;DHT22;55463;52.324;5.122;2023-04-22T08:31:18;16.81;80.88
67275;DHT22;55463;52.324;5.122;2023-04-22T08:33:44;17.82;82.97
67275;DHT22;55463;52.324;5.122;2023-04-22T08:36:09;18.00;75.26
67275;DHT22;55463;52.324;5.122;2023-04-22T08:38:36;18.31;74.72
67275;DHT22;55463;52.324;5.122;2023-04-22T08:41:04;18.98;73.35
67275;DHT22;55463;52.324;5.122;2023-04-22T08:43:31;19.62;73.52
67275;DHT22;55463;52.324;5.122;2023-04-22T08:45:56;19.86;71.24
67275;DHT22;55463;52.324;5.122;2023-04-22T08:48:22;19.51;67.09
67275;DHT22;55463;52.324;5.122;2023-04-22T08:50:48;19.98;69.23
67275;DHT22;55463;52.324;5.122;2023-04-22T08:53:14;20.13;69.66
67275;DHT22;55463;52.324;5.122;2023-04-22T08:55:43;20.38;70.69
67275;DHT22;55463;52.324;5.122;2023-04-22T08:58:09;20.80;68.85
67275;DHT22;55463;52.324;5.122;2023-04-22T09:00:36;20.86;67.30
67275;DHT22;55463;52.324;5.122;2023-04-22T09:03:01;21.11;67.01
67275;DHT22;55463;52.324;5.122;2023-04-22T09:05:28;21.03;65.94
67275;DHT22;55463;52.324;5.122;2023-04-22T09:07:57;21.46;64.05
67275;DHT22;55463;52.324;5.122;2023-04-22T09:10:22;21.90;65.86
67275;DHT22;55463;52.324;5.122;2023-04-22T09:12:48;21.77;63.01
67275;DHT22;55463;52.324;5.122;2023-04-22T09:15:14;21.25;65.32
67275;DHT22;55463;52.324;5.122;2023-04-22T09:17:39;21.50;66.16
67275;DHT22;55463;52.324;5.122;2023-04-22T09:20:06;21.87;65.36
67275;DHT22;55463;52.324;5.122;2023-04-22T09:22:44;22.08;62.36
67275;DHT22;55463;52.324;5.122;2023-04-22T09:25:17;22.14;63.23
67275;DHT22;55463;52.324;5.122;2023-04-22T09:27:42;21.82;62.02
67275;DHT22;55463;52.324;5.122;2023-04-22T09:30:08;21.92;64.12
67275;DHT22;55463;52.324;5.122;2023-04-22T09:32:34;21.43;62.81
67275;DHT22;55463;52.324;5.122;2023-04-22T09:35:00;21.45;61.24
67275;DHT22;55463;52.324;5.122;2023-04-22T09:37:25;21.42;63.41
67275;DHT22;55463;52.324;5.122;2023-04-22T09:39:52;20.77;63.15
67275;DHT22;55463;52.324;5.122;2023-04-22T09:42:19;21.22;64.80
67275;DHT22;55463;52.324;5.122;2023-04-22T09:44:49;22.03;66.51
67275;DHT22;55463;52.324;5.122;2023-04-22T09:47:18;22.51;63.11
67275;DHT22;55463;52.324;5.122;2023-04-22T09:49:45;22.82;62.46
67275;DHT22;55463;52.324;5.122;2023-04-22T09:52:22;23.14;60.92
67275;DHT22;55463;52.324;5.122;2023-04-22T09:54:52;23.17;60.29
67275;DHT22;55463;52.324;5.122;2023-04-22T09:57:19;22.56;61.68
67275;DHT22;55463;52.324;5.122;2023-04-22T09:59:45;21.39;61.67
67275;DHT22;55463;52.324;5.122;2023-04-22T10:02:11;21.22;63.58
67275;DHT22;55463;52.324;5.122;2023-04-22T10:04:36;21.69;65.63
67275;DHT22;55463;52.324;5.122;2023-04-22T10:07:02;21.86;64.50
67275;DHT22;55463;52.324;5.122;2023-04-22T10:09:28;22.21;62.79
67275;DHT22;55463;52.324;5.122;2023-04-22T10:11:55;22.25;62.43
67275;DHT22;55463;52.324;5.122;2023-04-22T10:14:22;23.00;63.26
67275;DHT22;55463;52.324;5.122;2023-04-22T10:16:49;23.28;60.51
67275;DHT22;55463;52.324;5.122;2023-04-22T10:19:20;23.22;61.05
67275;DHT22;55463;52.324;5.122;2023-04-22T10:21:48;23.14;60.84
67275;DHT22;55463;52.324;5.122;2023-04-22T10:24:15;22.66;61.57
67275;DHT22;55463;52.324;5.122;2023-04-22T10:26:48;22.27;63.08
67275;DHT22;55463;52.324;5.122;2023-04-22T10:29:18;21.87;64.12
67275;DHT22;55463;52.324;5.122;2023-04-22T10:31:50;21.76;65.11
67275;DHT22;55463;52.324;5.122;2023-04-22T10:34:17;22.25;64.64
67275;DHT22;55463;52.324;5.122;2023-04-22T10:37:06;22.04;62.83
67275;DHT22;55463;52.324;5.122;2023-04-22T10:39:32;22.15;63.79
67275;DHT22;55463;52.324;5.122;2023-04-22T10:44:26;21.83;64.35
67275;DHT22;55463;52.324;5.122;2023-04-22T10:49:19;21.25;65.57
67275;DHT22;55463;52.324;5.122;2023-04-22T10:51:47;21.94;63.46
67275;DHT22;55463;52.324;5.122;2023-04-22T10:57:09;21.79;63.38
67275;DHT22;55463;52.324;5.122;2023-04-22T10:59:45;22.63;64.31
67275;DHT22;55463;52.324;5.122;2023-04-22T11:02:13;21.75;61.38
67275;DHT22;55463;52.324;5.122;2023-04-22T11:04:39;21.39;62.67
67275;DHT22;55463;52.324;5.122;2023-04-22T11:15:18;19.48;67.60
67275;DHT22;55463;52.324;5.122;2023-04-22T11:17:50;19.15;67.89
67275;DHT22;55463;52.324;5.122;2023-04-22T11:20:16;18.86;67.83
67275;DHT22;55463;52.324;5.122;2023-04-22T11:22:44;18.87;69.09
67275;DHT22;55463;52.324;5.122;2023-04-22T11:25:09;18.89;68.61
67275;DHT22;55463;52.324;5.122;2023-04-22T11:27:36;18.97;70.22
67275;DHT22;55463;52.324;5.122;2023-04-22T11:32:35;18.44;68.54
67275;DHT22;55463;52.324;5.122;2023-04-22T11:35:06;18.18;69.23
67275;DHT22;55463;52.324;5.122;2023-04-22T11:38:04;17.87;69.87
67275;DHT22;55463;52.324;5.122;2023-04-22T11:40:32;17.82;72.59
67275;DHT22;55463;52.324;5.122;2023-04-22T11:43:00;17.73;73.95
67275;DHT22;55463;52.324;5.122;2023-04-22T11:45:30;17.49;73.77
67275;DHT22;55463;52.324;5.122;2023-04-22T11:47:55;17.53;74.18
67275;DHT22;55463;52.324;5.122;2023-04-22T11:50:23;17.40;74.39
67275;DHT22;55463;52.324;5.122;2023-04-22T11:52:53;17.34;73.82
67275;DHT22;55463;52.324;5.122;2023-04-22T11:55:21;17.34;72.94
67275;DHT22;55463;52.324;5.122;2023-04-22T11:57:59;17.20;73.41
67275;DHT22;55463;52.324;5.122;2023-04-22T12:00:30;16.97;73.47
67275;DHT22;55463;52.324;5.122;2023-04-22T12:03:07;16.95;75.94
67275;DHT22;55463;52.324;5.122;2023-04-22T12:05:49;16.90;77.75
67275;DHT22;55463;52.324;5.122;2023-04-22T12:08:17;16.83;77.70
67275;DHT22;55463;52.324;5.122;2023-04-22T12:10:57;16.69;78.54
67275;DHT22;55463;52.324;5.122;2023-04-22T12:13:26;16.60;80.41
67275;DHT22;55463;52.324;5.122;2023-04-22T12:16:04;16.55;80.01
67275;DHT22;55463;52.324;5.122;2023-04-22T12:18:40;16.49;79.75
67275;DHT22;55463;52.324;5.122;2023-04-22T12:23:48;16.22;80.50
67275;DHT22;55463;52.324;5.122;2023-04-22T12:26:15;16.12;82.21
67275;DHT22;55463;52.324;5.122;2023-04-22T12:28:42;16.10;81.66
67275;DHT22;55463;52.324;5.122;2023-04-22T12:31:08;15.98;82.37
67275;DHT22;55463;52.324;5.122;2023-04-22T12:33:35;15.86;81.44
67275;DHT22;55463;52.324;5.122;2023-04-22T12:36:00;15.79;82.79
67275;DHT22;55463;52.324;5.122;2023-04-22T12:38:26;15.73;82.87
67275;DHT22;55463;52.324;5.122;2023-04-22T12:40:52;15.71;83.20
67275;DHT22;55463;52.324;5.122;2023-04-22T12:43:17;15.69;84.79
67275;DHT22;55463;52.324;5.122;2023-04-22T12:45:43;15.69;84.62
67275;DHT22;55463;52.324;5.122;2023-04-22T12:48:08;15.56;84.04
67275;DHT22;55463;52.324;5.122;2023-04-22T12:50:34;15.39;83.72
67275;DHT22;55463;52.324;5.122;2023-04-22T12:52:59;15.27;84.59
67275;DHT22;55463;52.324;5.122;2023-04-22T12:55:25;15.15;85.05
67275;DHT22;55463;52.324;5.122;2023-04-22T12:57:51;15.07;85.78
67275;DHT22;55463;52.324;5.122;2023-04-22T13:00:17;15.11;87.73
67275;DHT22;55463;52.324;5.122;2023-04-22T13:02:45;14.88;86.92
67275;DHT22;55463;52.324;5.122;2023-04-22T13:05:11;14.79;86.86
67275;DHT22;55463;52.324;5.122;2023-04-22T13:07:38;14.83;87.56
67275;DHT22;55463;52.324;5.122;2023-04-22T13:10:05;14.55;86.78
67275;DHT22;55463;52.324;5.122;2023-04-22T13:12:30;14.56;87.00
67275;DHT22;55463;52.324;5.122;2023-04-22T13:14:56;14.35;86.22
67275;DHT22;55463;52.324;5.122;2023-04-22T13:17:21;14.20;86.86
67275;DHT22;55463;52.324;5.122;2023-04-22T13:19:47;14.05;86.84
67275;DHT22;55463;52.324;5.122;2023-04-22T13:22:12;14.07;87.82
67275;DHT22;55463;52.324;5.122;2023-04-22T13:24:38;14.01;88.78
67275;DHT22;55463;52.324;5.122;2023-04-22T13:27:03;13.97;88.90
67275;DHT22;55463;52.324;5.122;2023-04-22T13:29:31;14.04;89.19
67275;DHT22;55463;52.324;5.122;2023-04-22T13:31:57;14.01;89.81
67275;DHT22;55463;52.324;5.122;2023-04-22T13:34:23;13.90;87.93
67275;DHT22;55463;52.324;5.122;2023-04-22T13:36:48;13.63;88.58
67275;DHT22;55463;52.324;5.122;2023-04-22T13:39:14;13.71;89.65
67275;DHT22;55463;52.324;5.122;2023-04-22T13:41:39;13.76;90.04
67275;DHT22;55463;52.324;5.122;2023-04-22T13:44:05;13.71;89.82
67275;DHT22;55463;52.324;5.122;2023-04-22T13:46:30;13.79;89.71
67275;DHT22;55463;52.324;5.122;2023-04-22T13:48:56;13.67;89.57
67275;DHT22;55463;52.324;5.122;2023-04-22T13:51:22;13.58;89.61
67275;DHT22;55463;52.324;5.122;2023-04-22T13:53:48;13.55;90.07
67275;DHT22;55463;52.324;5.122;2023-04-22T13:56:13;13.55;89.64
67275;DHT22;55463;52.324;5.122;2023-04-22T13:58:39;13.42;89.84
67275;DHT22;55463;52.324;5.122;2023-04-22T14:01:08;13.41;90.44
67275;DHT22;55463;52.324;5.122;2023-04-22T14:03:34;13.39;89.82
67275;DHT22;55463;52.324;5.122;2023-04-22T14:06:00;13.22;89.66
67275;DHT22;55463;52.324;5.122;2023-04-22T14:08:26;13.18;89.73
67275;DHT22;55463;52.324;5.122;2023-04-22T14:10:52;13.12;90.02
67275;DHT22;55463;52.324;5.122;2023-04-22T14:13:18;13.07;89.90
67275;DHT22;55463;52.324;5.122;2023-04-22T14:15:43;13.00;90.08
67275;DHT22;55463;52.324;5.122;2023-04-22T14:18:08;12.93;90.46
67275;DHT22;55463;52.324;5.122;2023-04-22T14:20:34;12.96;90.58
67275;DHT22;55463;52.324;5.122;2023-04-22T14:22:59;12.83;90.50
67275;DHT22;55463;52.324;5.122;2023-04-22T14:25:25;12.86;90.58
67275;DHT22;55463;52.324;5.122;2023-04-22T14:27:50;12.81;90.70
67275;DHT22;55463;52.324;5.122;2023-04-22T14:30:16;12.72;90.65
67275;DHT22;55463;52.324;5.122;2023-04-22T14:32:42;12.72;90.63
67275;DHT22;55463;52.324;5.122;2023-04-22T14:35:08;12.67;90.64
67275;DHT22;55463;52.324;5.122;2023-04-22T14:37:33;12.62;90.96
67275;DHT22;55463;52.324;5.122;2023-04-22T14:40:00;12.56;91.20
67275;DHT22;55463;52.324;5.122;2023-04-22T14:42:26;12.46;90.93
67275;DHT22;55463;52.324;5.122;2023-04-22T14:44:52;12.49;91.52
67275;DHT22;55463;52.324;5.122;2023-04-22T14:47:17;12.46;91.76
67275;DHT22;55463;52.324;5.122;2023-04-22T14:49:43;12.39;90.99
67275;DHT22;55463;52.324;5.122;2023-04-22T14:52:08;12.41;91.54
67275;DHT22;55463;52.324;5.122;2023-04-22T14:54:34;12.43;91.34
67275;DHT22;55463;52.324;5.122;2023-04-22T14:56:59;12.36;91.10
67275;DHT22;55463;52.324;5.122;2023-04-22T14:59:24;12.32;91.07
67275;DHT22;55463;52.324;5.122;2023-04-22T15:01:50;12.29;91.31
67275;DHT22;55463;52.324;5.122;2023-04-22T15:04:16;12.25;91.59
67275;DHT22;55463;52.324;5.122;2023-04-22T15:06:43;12.18;91.43
67275;DHT22;55463;52.324;5.122;2023-04-22T15:09:08;12.17;92.18
67275;DHT22;55463;52.324;5.122;2023-04-22T15:11:34;12.08;92.29
67275;DHT22;55463;52.324;5.122;2023-04-22T15:13:59;12.01;92.35
67275;DHT22;55463;52.324;5.122;2023-04-22T15:16:24;11.91;92.92
67275;DHT22;55463;52.324;5.122;2023-04-22T15:18:50;11.95;93.31
67275;DHT22;55463;52.324;5.122;2023-04-22T15:21:15;11.95;93.56
67275;DHT22;55463;52.324;5.122;2023-04-22T15:23:41;11.91;93.56
67275;DHT22;55463;52.324;5.122;2023-04-22T15:26:06;11.81;93.49
67275;DHT22;55463;52.324;5.122;2023-04-22T15:28:32;11.81;93.78
67275;DHT22;55463;52.324;5.122;2023-04-22T15:30:57;11.72;93.63
67275;DHT22;55463;52.324;5.122;2023-04-22T15:33:23;11.70;94.00
67275;DHT22;55463;52.324;5.122;2023-04-22T15:35:48;11.66;93.70
67275;DHT22;55463;52.324;5.122;2023-04-22T15:38:16;11.67;94.33
67275;DHT22;55463;52.324;5.122;2023-04-22T15:40:41;11.62;94.02
67275;DHT22;55463;52.324;5.122;2023-04-22T15:43:06;11.55;93.40
67275;DHT22;55463;52.324;5.122;2023-04-22T15:45:35;11.51;93.08
67275;DHT22;55463;52.324;5.122;2023-04-22T15:48:01;11.42;93.26
67275;DHT22;55463;52.324;5.122;2023-04-22T15:50:27;11.35;93.50
67275;DHT22;55463;52.324;5.122;2023-04-22T15:52:53;11.35;93.23